Time;durP1;ratioP1;P1;durP2;ratioP2;P2;SDS_P1;SDS_P2;PMS_P1;PMS_P2;Temp;Humidity;BMP_temperature;BMP_pressure;BME280_temperature;BME280_humidity;BME280_pressure;Samples;Min_cycle;Max_cycle;Signal;HPM_P1;HPM_P2
2021/03/20 00:01:05;;;;;;;18.60;13.57;;;;;;;;;;5014589;28;20230;-81
2021/03/20 00:03:31;;;;;;;18.08;14.32;;;;;;;;;;4998891;28;20201;-81
2021/03/20 00:05:57;;;;;;;20.48;14.30;;;;;;;;;;5001326;28;20191;-82
2021/03/20 00:08:24;;;;;;;22.63;15.73;;;;;;;;;;5001355;28;20199;-82
2021/03/20 00:10:51;;;;;;;22.38;16.77;;;;;;;;;;4998852;28;20266;-81
2021/03/20 00:13:18;;;;;;;18.15;16.30;;;;;;;;;;5000110;28;20210;-81
2021/03/20 00:15:45;;;;;;;21.67;17.05;;;;;;;;;;4999738;28;20194;-81
2021/03/20 00:18:11;;;;;;;20.17;15.98;;;;;;;;;;4995609;28;20186;-81
2021/03/20 00:20:39;;;;;;;22.60;18.00;;;;;;;;;;5003463;28;20270;-81
2021/03/20 00:23:05;;;;;;;17.75;15.52;;;;;;;;;;5000117;28;20262;-81
2021/03/20 00:25:32;;;;;;;17.10;14.13;;;;;;;;;;4999677;28;20644;-81
2021/03/20 00:27:58;;;;;;;19.90;15.00;;;;;;;;;;4999632;28;20171;-81
2021/03/20 00:30:25;;;;;;;18.02;14.43;;;;;;;;;;5000403;28;20186;-81
2021/03/20 00:32:51;;;;;;;20.50;15.00;;;;;;;;;;4999362;28;20184;-81
2021/03/20 00:35:18;;;;;;;17.65;14.05;;;;;;;;;;5004691;28;20189;-81
2021/03/20 00:37:44;;;;;;;22.15;15.00;;;;;;;;;;4998997;28;20187;-81
2021/03/20 00:40:11;;;;;;;16.15;14.40;;;;;;;;;;5000057;28;20174;-81
2021/03/20 00:42:37;;;;;;;17.42;14.82;;;;;;;;;;4996195;28;20195;-81
2021/03/20 00:45:05;;;;;;;17.17;15.38;;;;;;;;;;4999945;28;20198;-81
2021/03/20 00:47:31;;;;;;;21.70;14.60;;;;;;;;;;5001639;28;20202;-81
2021/03/20 00:49:57;;;;;;;16.45;14.30;;;;;;;;;;5013987;28;20178;-81
2021/03/20 00:52:23;;;;;;;18.88;14.32;;;;;;;;;;4998968;28;20680;-81
2021/03/20 00:54:49;;;;;;;21.33;14.55;;;;;;;;;;4997988;28;20221;-81
2021/03/20 00:57:15;;;;;;;15.85;14.15;;;;;;;;;;5000993;28;20262;-80
2021/03/20 00:59:41;;;;;;;19.27;15.23;;;;;;;;;;4998406;28;20191;-81
2021/03/20 01:02:07;;;;;;;17.42;15.27;;;;;;;;;;5001308;28;20179;-81
2021/03/20 01:04:33;;;;;;;18.70;14.60;;;;;;;;;;5004049;28;20179;-81
2021/03/20 01:06:59;;;;;;;16.75;14.68;;;;;;;;;;4997388;28;20242;-81
2021/03/20 01:09:26;;;;;;;18.23;14.73;;;;;;;;;;4998273;28;20191;-81
2021/03/20 01:11:52;;;;;;;18.83;14.73;;;;;;;;;;5002154;28;20230;-81
2021/03/20 01:14:18;;;;;;;23.42;16.23;;;;;;;;;;5002913;28;20199;-81
2021/03/20 01:16:44;;;;;;;19.55;14.75;;;;;;;;;;4997165;28;20179;-81
2021/03/20 01:19:10;;;;;;;20.98;15.35;;;;;;;;;;4999256;28;20177;-81
2021/03/20 01:21:36;;;;;;;21.55;16.40;;;;;;;;;;4993502;28;20243;-81
2021/03/20 01:24:02;;;;;;;18.65;15.85;;;;;;;;;;5001561;28;20229;-81
2021/03/20 01:26:28;;;;;;;17.23;14.15;;;;;;;;;;5002044;28;20217;-81
2021/03/20 01:28:54;;;;;;;21.83;14.93;;;;;;;;;;4996729;28;20501;-81
2021/03/20 01:31:20;;;;;;;27.38;15.23;;;;;;;;;;4999373;28;20262;-81
2021/03/20 01:33:46;;;;;;;18.00;15.27;;;;;;;;;;5001905;28;20210;-81
2021/03/20 01:36:12;;;;;;;15.48;12.88;;;;;;;;;;5002256;28;20190;-81
2021/03/20 01:38:38;;;;;;;18.40;14.52;;;;;;;;;;5002329;28;20194;-81
2021/03/20 01:41:06;;;;;;;18.33;14.25;;;;;;;;;;5000317;28;20250;-81
2021/03/20 01:43:33;;;;;;;20.50;13.60;;;;;;;;;;4996573;28;20183;-81
2021/03/20 01:46:18;;;;;;;18.42;14.65;;;;;;;;;;5001438;28;20276;-81
2021/03/20 01:48:44;;;;;;;17.90;14.25;;;;;;;;;;4999145;28;20187;-80
2021/03/20 01:51:12;;;;;;;19.42;14.35;;;;;;;;;;4998081;28;20183;-81
2021/03/20 01:53:44;;;;;;;17.00;14.85;;;;;;;;;;5001488;28;20271;-81
2021/03/20 01:56:11;;;;;;;17.98;13.68;;;;;;;;;;4998026;28;20187;-81
2021/03/20 01:58:39;;;;;;;21.52;13.98;;;;;;;;;;4997088;28;20179;-81
2021/03/20 02:01:07;;;;;;;19.65;14.25;;;;;;;;;;4998413;28;20654;-82
2021/03/20 02:03:33;;;;;;;18.60;14.73;;;;;;;;;;4997901;28;20190;-81
2021/03/20 02:06:01;;;;;;;14.85;13.25;;;;;;;;;;4998429;28;20687;-80
2021/03/20 02:08:27;;;;;;;19.52;13.73;;;;;;;;;;5001416;28;20233;-81
2021/03/20 02:10:55;;;;;;;17.88;13.38;;;;;;;;;;4996064;28;20227;-81
2021/03/20 02:13:24;;;;;;;18.45;13.82;;;;;;;;;;5003608;28;20191;-81
2021/03/20 02:15:51;;;;;;;17.40;12.15;;;;;;;;;;5000144;28;20191;-81
2021/03/20 02:18:17;;;;;;;16.55;14.02;;;;;;;;;;4993991;28;20187;-81
2021/03/20 02:20:55;;;;;;;15.57;13.40;;;;;;;;;;5001130;28;20188;-81
2021/03/20 02:23:21;;;;;;;19.60;12.35;;;;;;;;;;5006117;28;20449;-80
2021/03/20 02:26:06;;;;;;;16.33;13.32;;;;;;;;;;5000372;28;20175;-81
2021/03/20 02:28:49;;;;;;;19.23;13.68;;;;;;;;;;5003720;28;20190;-80
2021/03/20 02:31:21;;;;;;;16.52;12.93;;;;;;;;;;5001592;28;20198;-81
2021/03/20 02:33:59;;;;;;;15.63;12.60;;;;;;;;;;4996273;28;20203;-81
2021/03/20 02:36:31;;;;;;;20.55;13.98;;;;;;;;;;5001033;28;20192;-80
2021/03/20 02:39:01;;;;;;;15.07;12.63;;;;;;;;;;5001255;28;20231;-81
2021/03/20 02:41:30;;;;;;;18.00;12.88;;;;;;;;;;5004111;28;20187;-80
2021/03/20 02:44:05;;;;;;;18.05;12.52;;;;;;;;;;5001224;28;20199;-81
2021/03/20 02:46:31;;;;;;;16.23;13.30;;;;;;;;;;5003449;28;20174;-80
2021/03/20 02:49:14;;;;;;;19.95;13.35;;;;;;;;;;5000899;28;20254;-81
2021/03/20 02:51:47;;;;;;;20.75;14.70;;;;;;;;;;4999317;28;20521;-81
2021/03/20 02:54:33;;;;;;;16.08;12.95;;;;;;;;;;5008830;28;20231;-81
2021/03/20 02:57:02;;;;;;;15.85;13.57;;;;;;;;;;5004306;28;20183;-80
2021/03/20 02:59:33;;;;;;;17.00;13.05;;;;;;;;;;5005892;28;20544;-81
2021/03/20 03:02:01;;;;;;;16.40;13.02;;;;;;;;;;5016484;28;20193;-80
2021/03/20 03:04:29;;;;;;;14.70;12.00;;;;;;;;;;5001397;28;20687;-81
2021/03/20 03:06:58;;;;;;;16.70;13.23;;;;;;;;;;5003875;28;20190;-81
2021/03/20 03:09:34;;;;;;;16.92;13.15;;;;;;;;;;5001660;28;20218;-81
2021/03/20 03:12:05;;;;;;;17.23;12.73;;;;;;;;;;5005644;28;20223;-81
2021/03/20 03:14:52;;;;;;;16.33;12.00;;;;;;;;;;5005151;28;20234;-81
2021/03/20 03:17:18;;;;;;;16.08;12.73;;;;;;;;;;4998817;28;20210;-81
2021/03/20 03:19:49;;;;;;;14.57;12.60;;;;;;;;;;5007052;28;20245;-81
2021/03/20 03:22:23;;;;;;;17.50;13.07;;;;;;;;;;5001701;28;20184;-80
2021/03/20 03:24:50;;;;;;;20.58;14.13;;;;;;;;;;5003482;28;20191;-81
2021/03/20 03:27:18;;;;;;;16.25;13.43;;;;;;;;;;4999706;28;20192;-81
2021/03/20 03:29:44;;;;;;;14.45;11.65;;;;;;;;;;5003000;28;20190;-81
2021/03/20 03:32:10;;;;;;;16.50;13.05;;;;;;;;;;5000838;28;20359;-81
2021/03/20 03:34:35;;;;;;;17.33;13.17;;;;;;;;;;5000032;28;20203;-80
2021/03/20 03:37:11;;;;;;;16.60;13.50;;;;;;;;;;5000751;28;20410;-81
2021/03/20 03:39:57;;;;;;;14.38;12.50;;;;;;;;;;5001177;28;20438;-81
2021/03/20 03:42:24;;;;;;;17.55;13.93;;;;;;;;;;4993706;28;20247;-81
2021/03/20 03:44:51;;;;;;;17.35;12.68;;;;;;;;;;5002507;28;20219;-80
2021/03/20 03:47:19;;;;;;;18.88;13.27;;;;;;;;;;5001567;28;20290;-80
2021/03/20 03:49:45;;;;;;;16.63;12.10;;;;;;;;;;4999427;28;20171;-80
2021/03/20 03:52:13;;;;;;;15.43;12.57;;;;;;;;;;5001223;28;20247;-80
2021/03/20 03:54:39;;;;;;;16.40;11.35;;;;;;;;;;4997570;28;20199;-81
2021/03/20 03:57:25;;;;;;;14.15;11.70;;;;;;;;;;5000666;28;20207;-81
2021/03/20 03:59:57;;;;;;;14.80;12.25;;;;;;;;;;4994212;28;20188;-80
2021/03/20 04:02:26;;;;;;;15.77;11.45;;;;;;;;;;5001919;28;20269;-81
2021/03/20 04:04:52;;;;;;;16.70;11.57;;;;;;;;;;4997413;28;20211;-81
2021/03/20 04:07:18;;;;;;;14.60;12.20;;;;;;;;;;5001010;28;20184;-80
2021/03/20 04:10:07;;;;;;;13.97;11.47;;;;;;;;;;4998426;28;20466;-81
2021/03/20 04:12:41;;;;;;;13.55;12.13;;;;;;;;;;4998313;28;20824;-80
2021/03/20 04:15:19;;;;;;;13.40;11.98;;;;;;;;;;5000355;28;20204;-81
2021/03/20 04:17:59;;;;;;;16.23;11.48;;;;;;;;;;4999021;28;20199;-80
2021/03/20 04:20:43;;;;;;;13.98;11.40;;;;;;;;;;5003086;28;20579;-81
2021/03/20 04:23:14;;;;;;;13.05;11.70;;;;;;;;;;5014210;28;20179;-81
2021/03/20 04:25:49;;;;;;;15.35;10.88;;;;;;;;;;4996941;28;20178;-81
2021/03/20 04:28:15;;;;;;;13.07;11.73;;;;;;;;;;5004488;28;20671;-81
2021/03/20 04:30:41;;;;;;;18.52;12.95;;;;;;;;;;4998965;28;20422;-81
2021/03/20 04:33:17;;;;;;;17.25;11.85;;;;;;;;;;5000210;28;20187;-80
2021/03/20 04:35:48;;;;;;;13.98;11.30;;;;;;;;;;5007348;28;20275;-81
2021/03/20 04:38:14;;;;;;;15.23;11.35;;;;;;;;;;4999465;28;20187;-81
2021/03/20 04:40:40;;;;;;;17.33;13.18;;;;;;;;;;4997534;28;20186;-81
2021/03/20 04:43:06;;;;;;;13.93;12.50;;;;;;;;;;4999525;28;20171;-81
2021/03/20 04:45:41;;;;;;;12.73;11.48;;;;;;;;;;4997590;28;20179;-81
2021/03/20 04:48:13;;;;;;;19.75;11.93;;;;;;;;;;4998701;28;20429;-81
2021/03/20 04:50:39;;;;;;;14.90;11.50;;;;;;;;;;5001668;28;20218;-80
2021/03/20 04:53:05;;;;;;;13.90;11.15;;;;;;;;;;5000674;28;20187;-81
2021/03/20 04:55:34;;;;;;;14.57;11.77;;;;;;;;;;4995508;28;20171;-81
2021/03/20 04:58:12;;;;;;;15.57;12.07;;;;;;;;;;4999423;28;20175;-81
2021/03/20 05:00:46;;;;;;;13.35;11.23;;;;;;;;;;5000277;28;20522;-80
2021/03/20 05:03:17;;;;;;;17.38;11.63;;;;;;;;;;4997706;28;20247;-81
2021/03/20 05:05:48;;;;;;;13.70;11.45;;;;;;;;;;5001608;28;20234;-81
2021/03/20 05:08:16;;;;;;;17.73;11.63;;;;;;;;;;4999585;28;20282;-81
2021/03/20 05:10:48;;;;;;;12.52;10.63;;;;;;;;;;4997810;28;20219;-81
2021/03/20 05:13:26;;;;;;;16.63;12.70;;;;;;;;;;5004959;28;20249;-81
2021/03/20 05:15:57;;;;;;;14.05;10.38;;;;;;;;;;4996128;28;20259;-80
2021/03/20 05:18:23;;;;;;;12.43;11.00;;;;;;;;;;4993783;28;20184;-81
2021/03/20 05:20:49;;;;;;;10.90;9.60;;;;;;;;;;4999424;28;20200;-81
2021/03/20 05:23:14;;;;;;;12.60;10.77;;;;;;;;;;5000124;28;20217;-81
2021/03/20 05:25:40;;;;;;;12.43;10.90;;;;;;;;;;4998337;28;20183;-81
2021/03/20 05:28:06;;;;;;;12.97;11.10;;;;;;;;;;5014076;28;20195;-81
2021/03/20 05:30:32;;;;;;;14.35;11.18;;;;;;;;;;4997227;28;20492;-81
2021/03/20 05:32:58;;;;;;;13.25;9.88;;;;;;;;;;4999539;28;20212;-81
2021/03/20 05:35:26;;;;;;;17.85;10.45;;;;;;;;;;5002056;28;20210;-81
2021/03/20 05:37:53;;;;;;;16.65;10.73;;;;;;;;;;4997865;28;20194;-81
2021/03/20 05:40:29;;;;;;;11.32;9.60;;;;;;;;;;4999131;28;20167;-81
2021/03/20 05:43:06;;;;;;;11.95;8.93;;;;;;;;;;5013252;28;20178;-81
2021/03/20 05:45:34;;;;;;;12.82;10.23;;;;;;;;;;4997834;28;20182;-81
2021/03/20 05:48:07;;;;;;;15.85;9.30;;;;;;;;;;4999184;28;20188;-82
2021/03/20 05:50:36;;;;;;;14.80;9.70;;;;;;;;;;5002943;28;20183;-82
2021/03/20 05:53:12;;;;;;;14.38;9.73;;;;;;;;;;5000739;28;20206;-82
2021/03/20 05:55:46;;;;;;;12.93;9.90;;;;;;;;;;5000379;28;20175;-82
2021/03/20 05:58:16;;;;;;;9.38;8.30;;;;;;;;;;5021282;28;20175;-82
2021/03/20 06:00:49;;;;;;;9.90;8.68;;;;;;;;;;5001245;28;20175;-82
2021/03/20 06:03:30;;;;;;;13.48;10.52;;;;;;;;;;5001747;28;20175;-82
2021/03/20 06:06:00;;;;;;;11.52;9.07;;;;;;;;;;5002788;28;20212;-83
2021/03/20 06:08:26;;;;;;;14.10;9.30;;;;;;;;;;5006407;28;20242;-83
2021/03/20 06:10:56;;;;;;;16.63;9.70;;;;;;;;;;5000418;28;20277;-82
2021/03/20 06:13:28;;;;;;;11.90;9.45;;;;;;;;;;5007480;28;20442;-82
2021/03/20 06:16:01;;;;;;;10.73;8.57;;;;;;;;;;4999269;28;20206;-83
2021/03/20 06:18:46;;;;;;;13.07;9.80;;;;;;;;;;5006029;28;20186;-83
2021/03/20 06:21:21;;;;;;;11.40;9.88;;;;;;;;;;5001408;28;20183;-83
2021/03/20 06:23:57;;;;;;;14.20;9.88;;;;;;;;;;5004219;28;20225;-83
2021/03/20 06:26:29;;;;;;;13.32;9.07;;;;;;;;;;5004630;28;20492;-83
2021/03/20 06:28:57;;;;;;;10.10;9.10;;;;;;;;;;5005619;28;20190;-83
2021/03/20 06:31:26;;;;;;;16.08;10.35;;;;;;;;;;5006243;28;20174;-83
2021/03/20 06:33:53;;;;;;;12.85;8.80;;;;;;;;;;5002484;28;20214;-82
2021/03/20 06:36:22;;;;;;;10.75;9.18;;;;;;;;;;5000898;28;20650;-83
2021/03/20 06:38:56;;;;;;;10.52;8.63;;;;;;;;;;5001466;28;20216;-83
2021/03/20 06:41:43;;;;;;;9.60;8.65;;;;;;;;;;4996224;28;20175;-83
2021/03/20 06:44:19;;;;;;;11.45;8.80;;;;;;;;;;5013489;28;20596;-83
2021/03/20 06:46:45;;;;;;;10.65;9.40;;;;;;;;;;5001592;28;20179;-83
2021/03/20 06:49:31;;;;;;;11.82;9.85;;;;;;;;;;4995414;28;20270;-83
2021/03/20 06:52:00;;;;;;;12.10;8.73;;;;;;;;;;5013510;28;20282;-83
2021/03/20 06:54:27;;;;;;;12.70;8.80;;;;;;;;;;5013388;28;20203;-83
2021/03/20 06:56:53;;;;;;;12.63;9.13;;;;;;;;;;4995821;28;20189;-84
2021/03/20 06:59:22;;;;;;;10.43;8.95;;;;;;;;;;5017688;28;20175;-83
2021/03/20 07:01:57;;;;;;;12.80;10.02;;;;;;;;;;5004553;28;20653;-82
2021/03/20 07:04:23;;;;;;;14.25;9.32;;;;;;;;;;5004870;28;20225;-84
2021/03/20 07:07:04;;;;;;;12.67;8.50;;;;;;;;;;5000482;28;20577;-83
2021/03/20 07:09:31;;;;;;;15.15;8.95;;;;;;;;;;4998643;28;20470;-83
2021/03/20 07:12:14;;;;;;;13.02;9.70;;;;;;;;;;4999644;28;20287;-83
2021/03/20 07:14:40;;;;;;;12.60;9.25;;;;;;;;;;5016425;28;20207;-83
2021/03/20 07:17:08;;;;;;;11.45;9.13;;;;;;;;;;5002266;28;20202;-82
2021/03/20 07:19:34;;;;;;;8.82;7.93;;;;;;;;;;5002656;28;20202;-83
2021/03/20 07:22:00;;;;;;;14.35;9.00;;;;;;;;;;5000021;28;20171;-83
2021/03/20 07:24:38;;;;;;;14.43;9.50;;;;;;;;;;5003891;28;20187;-83
2021/03/20 07:27:07;;;;;;;12.68;8.90;;;;;;;;;;5001131;28;20461;-83
2021/03/20 07:29:49;;;;;;;9.50;8.60;;;;;;;;;;5006904;28;20243;-83
2021/03/20 07:32:24;;;;;;;10.70;7.93;;;;;;;;;;5011661;28;20207;-82
2021/03/20 07:34:51;;;;;;;8.63;7.75;;;;;;;;;;4998094;28;20214;-83
2021/03/20 07:37:20;;;;;;;13.50;8.80;;;;;;;;;;5004468;28;20181;-82
2021/03/20 07:39:54;;;;;;;10.77;8.02;;;;;;;;;;5000873;28;20241;-83
2021/03/20 07:42:26;;;;;;;10.40;8.55;;;;;;;;;;4998575;28;20215;-83
2021/03/20 07:44:56;;;;;;;12.90;9.18;;;;;;;;;;4998386;28;20199;-83
2021/03/20 07:47:23;;;;;;;9.10;8.20;;;;;;;;;;4995244;28;20188;-83
2021/03/20 07:50:05;;;;;;;9.52;7.40;;;;;;;;;;4985837;28;20203;-83
2021/03/20 07:52:31;;;;;;;10.63;8.35;;;;;;;;;;5016246;28;20187;-82
2021/03/20 07:55:23;;;;;;;13.15;7.72;;;;;;;;;;5013974;28;20199;-83
2021/03/20 07:58:03;;;;;;;9.65;7.68;;;;;;;;;;4994916;28;20191;-83
2021/03/20 08:00:29;;;;;;;7.97;7.13;;;;;;;;;;4998273;28;20188;-84
2021/03/20 08:03:03;;;;;;;9.03;7.50;;;;;;;;;;5001715;28;20207;-82
2021/03/20 08:05:38;;;;;;;12.05;8.55;;;;;;;;;;5017256;28;20446;-82
2021/03/20 08:08:13;;;;;;;12.50;8.00;;;;;;;;;;4999310;28;25578;-83
2021/03/20 08:10:43;;;;;;;10.85;8.20;;;;;;;;;;5001877;28;20292;-82
2021/03/20 08:13:15;;;;;;;8.32;7.38;;;;;;;;;;5005258;28;20199;-83
2021/03/20 08:15:45;;;;;;;13.00;7.95;;;;;;;;;;5012862;28;20195;-82
2021/03/20 08:18:24;;;;;;;11.32;8.30;;;;;;;;;;4999013;28;20195;-83
2021/03/20 08:20:59;;;;;;;10.45;9.27;;;;;;;;;;4992666;28;20223;-84
2021/03/20 08:23:44;;;;;;;16.65;8.43;;;;;;;;;;4993434;28;20195;-81
2021/03/20 08:26:13;;;;;;;11.52;7.20;;;;;;;;;;5015062;28;20206;-83
2021/03/20 08:28:46;;;;;;;10.77;8.18;;;;;;;;;;4999487;28;20179;-82
2021/03/20 08:31:25;;;;;;;11.82;7.30;;;;;;;;;;5011335;28;20176;-82
2021/03/20 08:34:02;;;;;;;11.20;7.88;;;;;;;;;;5010442;28;20298;-82
2021/03/20 08:36:31;;;;;;;9.75;7.72;;;;;;;;;;4993864;28;20648;-82
2021/03/20 08:39:06;;;;;;;9.30;7.80;;;;;;;;;;4993444;28;20288;-83
2021/03/20 08:41:38;;;;;;;13.00;7.57;;;;;;;;;;5000516;28;20186;-82
2021/03/20 08:44:18;;;;;;;9.80;7.80;;;;;;;;;;5001567;28;20197;-82
2021/03/20 08:46:48;;;;;;;8.90;6.95;;;;;;;;;;4991082;28;20206;-82
2021/03/20 08:49:33;;;;;;;7.80;6.75;;;;;;;;;;4997537;28;20222;-82
2021/03/20 08:52:04;;;;;;;7.10;6.15;;;;;;;;;;5010848;28;20183;-82
2021/03/20 08:54:49;;;;;;;7.82;7.03;;;;;;;;;;4998744;28;20213;-80
2021/03/20 08:57:29;;;;;;;7.15;6.13;;;;;;;;;;4997571;28;20184;-84
2021/03/20 08:59:56;;;;;;;7.68;6.40;;;;;;;;;;4995038;28;20275;-82
2021/03/20 09:02:25;;;;;;;6.85;5.47;;;;;;;;;;4995285;28;20198;-86
2021/03/20 09:04:52;;;;;;;11.20;6.15;;;;;;;;;;4996790;28;20641;-81
2021/03/20 09:07:23;;;;;;;10.73;6.18;;;;;;;;;;4999395;28;20179;-82
2021/03/20 09:09:52;;;;;;;5.70;5.20;;;;;;;;;;4992738;28;20198;-83
2021/03/20 09:12:27;;;;;;;6.57;3.55;;;;;;;;;;4998660;28;20226;-81
2021/03/20 09:14:53;;;;;;;7.93;3.63;;;;;;;;;;4997838;28;20278;-81
2021/03/20 09:17:21;;;;;;;7.93;4.05;;;;;;;;;;5002983;28;20183;-81
2021/03/20 09:19:51;;;;;;;4.78;3.90;;;;;;;;;;4996652;28;20183;-82
2021/03/20 09:22:18;;;;;;;8.70;4.20;;;;;;;;;;4999617;28;20164;-82
2021/03/20 09:24:48;;;;;;;5.63;4.05;;;;;;;;;;4995909;28;20202;-82
2021/03/20 09:27:14;;;;;;;4.70;4.30;;;;;;;;;;4997602;28;20191;-78
2021/03/20 09:30:00;;;;;;;12.32;5.40;;;;;;;;;;5001871;28;20187;-81
2021/03/20 09:32:26;;;;;;;7.07;4.82;;;;;;;;;;4998127;28;20192;-81
2021/03/20 09:34:53;;;;;;;5.45;4.60;;;;;;;;;;4996435;28;20311;-83
2021/03/20 09:37:19;;;;;;;8.55;4.78;;;;;;;;;;4990285;28;20239;-83
2021/03/20 09:39:48;;;;;;;4.70;4.30;;;;;;;;;;5000238;28;20198;-82
2021/03/20 09:42:26;;;;;;;5.30;4.50;;;;;;;;;;4996952;28;20485;-83
2021/03/20 09:44:57;;;;;;;6.75;4.93;;;;;;;;;;4992399;28;20202;-84
2021/03/20 09:47:26;;;;;;;5.50;5.00;;;;;;;;;;5009492;28;20190;-84
2021/03/20 09:49:53;;;;;;;11.88;5.78;;;;;;;;;;4995435;28;20192;-83
2021/03/20 09:52:37;;;;;;;7.95;4.47;;;;;;;;;;5000000;28;20202;-84
2021/03/20 09:55:22;;;;;;;7.65;4.53;;;;;;;;;;4998719;28;20210;-82
2021/03/20 09:57:52;;;;;;;5.25;4.75;;;;;;;;;;4995538;28;20183;-84
2021/03/20 10:00:38;;;;;;;5.72;4.20;;;;;;;;;;4999709;28;20190;-83
2021/03/20 10:03:04;;;;;;;7.40;4.88;;;;;;;;;;5004346;28;20257;-82
2021/03/20 10:05:31;;;;;;;7.47;4.20;;;;;;;;;;5001180;28;20285;-81
2021/03/20 10:08:17;;;;;;;6.88;5.15;;;;;;;;;;5000583;28;20197;-81
2021/03/20 10:10:45;;;;;;;8.98;4.88;;;;;;;;;;4993180;28;20243;-84
2021/03/20 10:13:14;;;;;;;6.28;4.95;;;;;;;;;;4995428;28;20191;-84
2021/03/20 10:15:52;;;;;;;10.15;5.30;;;;;;;;;;4998193;28;20194;-84
2021/03/20 10:18:20;;;;;;;7.13;5.55;;;;;;;;;;4994552;28;20210;-88
2021/03/20 10:20:54;;;;;;;7.40;4.93;;;;;;;;;;5000140;28;20183;-85
2021/03/20 10:23:20;;;;;;;5.10;4.43;;;;;;;;;;4991886;28;20218;-80
2021/03/20 10:25:49;;;;;;;7.30;5.23;;;;;;;;;;4991400;28;20235;-81
2021/03/20 10:28:15;;;;;;;11.27;5.03;;;;;;;;;;4993286;28;20438;-82
2021/03/20 10:30:41;;;;;;;4.78;4.38;;;;;;;;;;4996412;28;20175;-80
2021/03/20 10:33:22;;;;;;;4.60;4.20;;;;;;;;;;4997553;28;20179;-81
2021/03/20 10:35:48;;;;;;;5.70;5.03;;;;;;;;;;5000411;28;20191;-80
2021/03/20 10:38:21;;;;;;;7.43;5.43;;;;;;;;;;4996729;28;20246;-83
2021/03/20 10:40:56;;;;;;;6.15;5.45;;;;;;;;;;5012445;28;20222;-83
2021/03/20 10:43:22;;;;;;;7.93;6.20;;;;;;;;;;5001582;28;20171;-82
2021/03/20 10:45:48;;;;;;;6.85;5.38;;;;;;;;;;4999845;28;20325;-86
2021/03/20 10:48:16;;;;;;;9.20;5.60;;;;;;;;;;4999486;28;20187;-81
2021/03/20 10:50:43;;;;;;;6.47;5.47;;;;;;;;;;5003460;28;20253;-82
2021/03/20 10:53:21;;;;;;;6.53;5.82;;;;;;;;;;5016439;28;20336;-85
2021/03/20 10:55:52;;;;;;;8.35;6.30;;;;;;;;;;4997265;28;20444;-82
2021/03/20 10:58:29;;;;;;;7.82;6.32;;;;;;;;;;5001724;28;20206;-86
2021/03/20 11:00:56;;;;;;;6.43;5.38;;;;;;;;;;5005314;28;20179;-82
2021/03/20 11:03:36;;;;;;;6.70;6.00;;;;;;;;;;5004818;28;20182;-80
2021/03/20 11:06:16;;;;;;;8.25;6.13;;;;;;;;;;5001307;28;20182;-82
2021/03/20 11:08:43;;;;;;;8.32;6.60;;;;;;;;;;5006080;28;20262;-81
2021/03/20 11:11:21;;;;;;;7.68;6.82;;;;;;;;;;5005418;28;20580;-82
2021/03/20 11:13:49;;;;;;;9.70;7.43;;;;;;;;;;4997236;28;20210;-83
2021/03/20 11:16:20;;;;;;;10.55;8.02;;;;;;;;;;5003296;28;20179;-83
2021/03/20 11:18:48;;;;;;;8.98;7.88;;;;;;;;;;5001288;28;20206;-83
2021/03/20 11:21:16;;;;;;;12.20;8.43;;;;;;;;;;4999519;28;20175;-80
2021/03/20 11:23:42;;;;;;;12.02;10.05;;;;;;;;;;5002929;28;20194;-80
2021/03/20 11:26:23;;;;;;;9.48;8.57;;;;;;;;;;5003669;28;20187;-82
2021/03/20 11:28:49;;;;;;;10.88;9.20;;;;;;;;;;5006060;28;20175;-82
2021/03/20 11:31:17;;;;;;;14.75;9.45;;;;;;;;;;5000620;28;20660;-81
2021/03/20 11:33:44;;;;;;;9.60;8.60;;;;;;;;;;4996776;28;20230;-81
2021/03/20 11:36:15;;;;;;;11.20;9.30;;;;;;;;;;5010320;28;20618;-80
2021/03/20 11:38:41;;;;;;;13.45;9.63;;;;;;;;;;4993227;28;20217;-81
2021/03/20 11:41:07;;;;;;;12.73;9.13;;;;;;;;;;5000955;28;20263;-82
2021/03/20 11:43:52;;;;;;;12.57;9.70;;;;;;;;;;4998925;28;20181;-81
2021/03/20 11:46:27;;;;;;;9.98;8.98;;;;;;;;;;5000860;28;20176;-82
2021/03/20 11:49:02;;;;;;;11.50;9.70;;;;;;;;;;4997234;28;20203;-81
2021/03/20 11:51:28;;;;;;;10.43;9.50;;;;;;;;;;4998615;28;20188;-80
2021/03/20 11:53:57;;;;;;;10.20;9.20;;;;;;;;;;5002207;28;20279;-83
2021/03/20 11:56:25;;;;;;;12.40;10.10;;;;;;;;;;5003699;28;20430;-82
2021/03/20 11:59:05;;;;;;;12.10;9.65;;;;;;;;;;4996735;28;20191;-78
2021/03/20 12:01:34;;;;;;;10.98;9.88;;;;;;;;;;5000529;28;20205;-80
2021/03/20 12:04:17;;;;;;;10.45;9.38;;;;;;;;;;4999214;28;20191;-81
2021/03/20 12:06:43;;;;;;;13.20;11.13;;;;;;;;;;5003412;28;20764;-81
2021/03/20 12:09:22;;;;;;;11.18;10.07;;;;;;;;;;4999717;28;20207;-80
2021/03/20 12:11:48;;;;;;;11.20;10.10;;;;;;;;;;5004145;28;20228;-82
2021/03/20 12:14:34;;;;;;;12.50;11.03;;;;;;;;;;5003385;28;20213;-82
2021/03/20 12:17:09;;;;;;;11.05;9.60;;;;;;;;;;5016571;28;20438;-81
2021/03/20 12:19:54;;;;;;;11.27;10.25;;;;;;;;;;4990391;28;20214;-80
2021/03/20 12:22:32;;;;;;;11.38;10.27;;;;;;;;;;5004281;28;20175;-80
2021/03/20 12:25:06;;;;;;;11.13;9.98;;;;;;;;;;5001579;28;20206;-82
2021/03/20 12:27:37;;;;;;;11.02;10.02;;;;;;;;;;4998383;28;20218;-84
2021/03/20 12:30:03;;;;;;;10.68;9.68;;;;;;;;;;4991122;28;20211;-80
2021/03/20 12:32:36;;;;;;;11.93;9.77;;;;;;;;;;5007123;28;20187;-79
2021/03/20 12:35:15;;;;;;;11.48;10.50;;;;;;;;;;4995906;28;20469;-82
2021/03/20 12:37:41;;;;;;;12.13;10.93;;;;;;;;;;4995796;28;20173;-81
2021/03/20 12:40:07;;;;;;;12.00;10.90;;;;;;;;;;5015007;28;20455;-81
2021/03/20 12:42:33;;;;;;;12.27;11.03;;;;;;;;;;4998685;28;20410;-82
2021/03/20 12:44:59;;;;;;;12.13;10.97;;;;;;;;;;4996122;28;20499;-82
2021/03/20 12:47:25;;;;;;;10.53;9.67;;;;;;;;;;4998076;28;20445;-81
2021/03/20 12:49:51;;;;;;;11.13;10.13;;;;;;;;;;4998922;28;20417;-81
2021/03/20 12:52:19;;;;;;;10.80;10.00;;;;;;;;;;4997393;28;20435;-82
2021/03/20 12:54:47;;;;;;;10.77;9.77;;;;;;;;;;4994310;28;20475;-79
2021/03/20 12:57:24;;;;;;;9.40;8.60;;;;;;;;;;4999885;28;20506;-81
2021/03/20 12:59:50;;;;;;;10.87;9.80;;;;;;;;;;4999663;28;20438;-81
2021/03/20 13:02:17;;;;;;;9.43;8.73;;;;;;;;;;4996306;28;20432;-81
2021/03/20 13:04:45;;;;;;;9.70;8.90;;;;;;;;;;5000789;28;20424;-78
2021/03/20 13:07:11;;;;;;;11.20;10.20;;;;;;;;;;5000442;28;20429;-80
2021/03/20 13:09:37;;;;;;;10.83;10.03;;;;;;;;;;4999447;28;20567;-80
2021/03/20 13:12:04;;;;;;;9.73;8.90;;;;;;;;;;5008856;28;20479;-80
2021/03/20 13:14:30;;;;;;;9.83;8.93;;;;;;;;;;5009438;28;20500;-80
2021/03/20 13:16:56;;;;;;;10.20;9.30;;;;;;;;;;4999310;28;20445;-79
2021/03/20 13:19:22;;;;;;;10.53;9.67;;;;;;;;;;4998436;28;20499;-79
2021/03/20 13:21:48;;;;;;;11.63;10.63;;;;;;;;;;4997498;28;20503;-79
2021/03/20 13:24:14;;;;;;;11.40;10.50;;;;;;;;;;4991723;28;20461;-79
2021/03/20 13:26:40;;;;;;;9.47;8.73;;;;;;;;;;4998351;28;20443;-78
2021/03/20 13:29:07;;;;;;;10.67;9.87;;;;;;;;;;4999215;28;20442;-79
2021/03/20 13:31:33;;;;;;;10.80;9.90;;;;;;;;;;4998732;28;20422;-79
2021/03/20 13:33:59;;;;;;;9.57;8.87;;;;;;;;;;4998382;28;20458;-79
2021/03/20 13:36:25;;;;;;;10.60;9.80;;;;;;;;;;4999027;28;20559;-79
2021/03/20 13:38:51;;;;;;;11.30;10.40;;;;;;;;;;4996247;28;21025;-80
2021/03/20 13:41:18;;;;;;;10.93;9.90;;;;;;;;;;4994153;28;20431;-81
2021/03/20 13:43:44;;;;;;;10.83;9.73;;;;;;;;;;5002157;28;20441;-79
2021/03/20 13:46:10;;;;;;;10.77;9.90;;;;;;;;;;5014471;28;20445;-79
2021/03/20 13:48:36;;;;;;;11.80;10.57;;;;;;;;;;4997123;28;20441;-78
2021/03/20 13:51:03;;;;;;;10.07;9.07;;;;;;;;;;5001318;28;20470;-79
2021/03/20 13:53:30;;;;;;;9.93;9.03;;;;;;;;;;4999996;28;20456;-78
2021/03/20 13:55:58;;;;;;;7.80;7.10;;;;;;;;;;4993967;28;20437;-78
2021/03/20 13:58:25;;;;;;;8.87;8.17;;;;;;;;;;5009270;28;20427;-80
2021/03/20 14:00:54;;;;;;;8.53;7.83;;;;;;;;;;5009682;28;20444;-80
2021/03/20 14:03:21;;;;;;;9.53;8.63;;;;;;;;;;4996929;28;20835;-80
2021/03/20 14:05:47;;;;;;;9.40;8.60;;;;;;;;;;4997530;28;20445;-80
2021/03/20 14:08:13;;;;;;;8.43;7.83;;;;;;;;;;5001547;28;20433;-79
2021/03/20 14:10:40;;;;;;;9.90;9.10;;;;;;;;;;4995694;28;20539;-80
2021/03/20 14:13:07;;;;;;;9.93;9.07;;;;;;;;;;4990325;28;20421;-80
2021/03/20 14:15:33;;;;;;;7.93;7.13;;;;;;;;;;4998940;28;20790;-82
2021/03/20 14:17:59;;;;;;;8.30;7.50;;;;;;;;;;5002738;28;20512;-81
2021/03/20 14:20:39;;;;;;;8.40;7.80;;;;;;;;;;5004795;28;20865;-79
2021/03/20 14:23:06;;;;;;;8.70;8.00;;;;;;;;;;4995026;28;20441;-80
2021/03/20 14:25:32;;;;;;;9.50;8.70;;;;;;;;;;5002676;28;20408;-81
2021/03/20 14:28:08;;;;;;;8.90;8.20;;;;;;;;;;5011118;28;20431;-80
2021/03/20 14:30:35;;;;;;;9.23;8.20;;;;;;;;;;4995915;28;20438;-79
2021/03/20 14:33:01;;;;;;;8.95;8.25;;;;;;;;;;5003574;28;20443;-80
2021/03/20 14:35:28;;;;;;;12.68;9.15;;;;;;;;;;4999599;28;20225;-78
2021/03/20 14:37:54;;;;;;;10.30;9.40;;;;;;;;;;5008825;28;20957;-77
2021/03/20 14:40:22;;;;;;;9.73;8.80;;;;;;;;;;4998974;28;21509;-79
2021/03/20 14:42:48;;;;;;;12.82;9.20;;;;;;;;;;4999024;28;20240;-79
2021/03/20 14:45:14;;;;;;;11.02;8.90;;;;;;;;;;4998271;28;20193;-79
2021/03/20 14:47:40;;;;;;;10.18;9.27;;;;;;;;;;4998504;28;20322;-79